Time;durP1;ratioP1;P1;durP2;ratioP2;P2;SDS_P1;SDS_P2;PMS_P1;PMS_P2;Temp;Humidity;BMP_temperature;BMP_pressure;BME280_temperature;BME280_humidity;BME280_pressure;Samples;Min_cycle;Max_cycle;Signal;HPM_P1;HPM_P2
2023/09/29 00:03:02;;;;;;;8.80;5.23;;;;;;;;;;5020335;28;20181;-83
2023/09/29 00:06:07;;;;;;;6.67;5.60;;;;;;;;;;5019694;28;20181;-83
2023/09/29 00:09:12;;;;;;;6.43;5.40;;;;;;;;;;5068985;28;20177;-84
2023/09/29 00:12:16;;;;;;;11.47;5.80;;;;;;;;;;5056370;28;20181;-84
2023/09/29 00:15:21;;;;;;;9.60;5.67;;;;;;;;;;5056973;28;20629;-84
2023/09/29 00:18:26;;;;;;;10.27;6.33;;;;;;;;;;5020313;28;20213;-84
2023/09/29 00:21:30;;;;;;;7.63;6.33;;;;;;;;;;5068620;28;20177;-84
2023/09/29 00:24:34;;;;;;;9.27;7.23;;;;;;;;;;5060132;28;20186;-84
2023/09/29 00:27:38;;;;;;;9.67;6.30;;;;;;;;;;5011554;28;20233;-84
2023/09/29 00:30:42;;;;;;;8.27;6.20;;;;;;;;;;5058869;28;20182;-83
2023/09/29 00:33:47;;;;;;;8.33;5.60;;;;;;;;;;5011046;28;20189;-84
2023/09/29 00:36:51;;;;;;;8.17;6.13;;;;;;;;;;5011968;28;20216;-84
2023/09/29 00:39:56;;;;;;;8.73;5.57;;;;;;;;;;5022098;28;20214;-84
2023/09/29 00:43:03;;;;;;;8.73;5.57;;;;;;;;;;5070305;28;20182;-84
2023/09/29 00:46:07;;;;;;;9.33;6.00;;;;;;;;;;5022404;28;20185;-84
2023/09/29 00:49:14;;;;;;;7.17;5.60;;;;;;;;;;5070140;28;20546;-83
2023/09/29 00:52:18;;;;;;;7.47;5.70;;;;;;;;;;5058372;28;20186;-84
2023/09/29 00:55:26;;;;;;;6.97;5.50;;;;;;;;;;5022017;28;20181;-84
2023/09/29 00:58:31;;;;;;;7.27;5.47;;;;;;;;;;5069009;28;20209;-84
2023/09/29 01:01:35;;;;;;;8.93;5.67;;;;;;;;;;5010113;28;20174;-84
2023/09/29 01:04:39;;;;;;;10.40;6.40;;;;;;;;;;5057973;28;20182;-84
2023/09/29 01:07:44;;;;;;;9.47;5.87;;;;;;;;;;5057798;28;20213;-84
2023/09/29 01:10:49;;;;;;;10.40;5.80;;;;;;;;;;4999520;28;20630;-83
2023/09/29 01:13:54;;;;;;;10.07;5.80;;;;;;;;;;5000555;28;20186;-84
2023/09/29 01:16:58;;;;;;;11.83;7.00;;;;;;;;;;5057518;28;20217;-84
2023/09/29 01:20:05;;;;;;;9.83;6.30;;;;;;;;;;5057227;28;20209;-83
2023/09/29 01:23:10;;;;;;;8.63;6.00;;;;;;;;;;5057695;28;20185;-84
2023/09/29 01:26:14;;;;;;;8.60;6.50;;;;;;;;;;5057019;28;20527;-85
2023/09/29 01:29:18;;;;;;;8.37;5.83;;;;;;;;;;5022246;28;20182;-84
2023/09/29 01:32:23;;;;;;;9.47;5.80;;;;;;;;;;5010020;28;20519;-83
2023/09/29 01:35:27;;;;;;;8.30;5.90;;;;;;;;;;5069033;28;20181;-85
2023/09/29 01:38:32;;;;;;;17.13;6.20;;;;;;;;;;5068101;28;20558;-84
2023/09/29 01:41:36;;;;;;;8.60;5.70;;;;;;;;;;4986665;28;20209;-84
2023/09/29 01:44:41;;;;;;;7.40;5.80;;;;;;;;;;4998025;28;20182;-84
2023/09/29 01:47:47;;;;;;;7.07;5.60;;;;;;;;;;5055763;28;20225;-84
2023/09/29 01:50:51;;;;;;;8.97;6.40;;;;;;;;;;5009401;28;20186;-83
2023/09/29 01:53:55;;;;;;;7.80;6.43;;;;;;;;;;5069134;28;20194;-85
2023/09/29 01:57:01;;;;;;;10.47;6.20;;;;;;;;;;5020581;28;20229;-84
2023/09/29 02:00:07;;;;;;;7.80;5.73;;;;;;;;;;5056357;28;20222;-83
2023/09/29 02:03:17;;;;;;;7.87;5.97;;;;;;;;;;5068625;28;20177;-84
2023/09/29 02:06:22;;;;;;;10.43;6.00;;;;;;;;;;5008263;28;20186;-84
2023/09/29 02:09:26;;;;;;;7.73;6.07;;;;;;;;;;5068877;28;20182;-84
2023/09/29 02:12:31;;;;;;;13.47;6.40;;;;;;;;;;5068336;28;20177;-84
2023/09/29 02:15:36;;;;;;;14.53;6.67;;;;;;;;;;5056731;28;20174;-84
2023/09/29 02:18:40;;;;;;;8.13;6.10;;;;;;;;;;5056898;28;20221;-84
2023/09/29 02:21:45;;;;;;;9.73;6.73;;;;;;;;;;5068314;28;20209;-83
2023/09/29 02:24:49;;;;;;;8.20;6.27;;;;;;;;;;5056350;28;20173;-83
2023/09/29 02:27:58;;;;;;;13.03;6.83;;;;;;;;;;4997952;28;20229;-84
2023/09/29 02:31:02;;;;;;;11.77;6.27;;;;;;;;;;4998529;28;20182;-84
2023/09/29 02:34:07;;;;;;;8.47;5.70;;;;;;;;;;5056277;28;20185;-84
2023/09/29 02:37:11;;;;;;;11.00;6.50;;;;;;;;;;5057380;28;20217;-84
2023/09/29 02:40:15;;;;;;;8.63;6.37;;;;;;;;;;5057292;28;20217;-84
2023/09/29 02:43:20;;;;;;;9.07;6.53;;;;;;;;;;5009510;28;20182;-84
2023/09/29 02:46:24;;;;;;;9.00;6.67;;;;;;;;;;5056427;28;20182;-84
2023/09/29 02:49:30;;;;;;;9.93;6.43;;;;;;;;;;5066415;28;20215;-84
2023/09/29 02:52:35;;;;;;;7.93;6.40;;;;;;;;;;5045389;28;20177;-84
2023/09/29 02:55:39;;;;;;;10.03;6.73;;;;;;;;;;5008595;28;20177;-84
2023/09/29 02:58:46;;;;;;;9.43;6.10;;;;;;;;;;5009002;28;20586;-84
2023/09/29 03:01:51;;;;;;;9.10;6.33;;;;;;;;;;5045123;28;20205;-83
2023/09/29 03:04:56;;;;;;;8.93;6.70;;;;;;;;;;5009805;28;20181;-84
2023/09/29 03:08:01;;;;;;;7.87;6.67;;;;;;;;;;5010195;28;20222;-84
2023/09/29 03:11:06;;;;;;;9.47;7.57;;;;;;;;;;5056851;28;20737;-84
2023/09/29 03:14:15;;;;;;;9.03;7.60;;;;;;;;;;5057673;28;20186;-84
2023/09/29 03:17:20;;;;;;;9.33;7.47;;;;;;;;;;5046302;28;20217;-84
2023/09/29 03:20:25;;;;;;;9.47;6.80;;;;;;;;;;5069232;28;20209;-84
2023/09/29 03:23:34;;;;;;;10.10;7.60;;;;;;;;;;5058168;28;20185;-84
2023/09/29 03:26:38;;;;;;;9.37;7.40;;;;;;;;;;5056830;28;20201;-83
2023/09/29 03:29:42;;;;;;;11.67;8.13;;;;;;;;;;5046453;28;20177;-83
2023/09/29 03:32:46;;;;;;;10.37;7.90;;;;;;;;;;5009686;28;20178;-84
2023/09/29 03:35:50;;;;;;;11.07;7.90;;;;;;;;;;5057112;28;20185;-84
2023/09/29 03:38:55;;;;;;;10.30;8.23;;;;;;;;;;5057377;28;20181;-85
2023/09/29 03:41:59;;;;;;;10.07;7.70;;;;;;;;;;5057963;28;20209;-84
2023/09/29 03:45:05;;;;;;;10.97;7.63;;;;;;;;;;5069506;28;20182;-84
2023/09/29 03:48:09;;;;;;;8.43;7.00;;;;;;;;;;5052813;28;20217;-85
2023/09/29 03:51:23;;;;;;;10.87;7.87;;;;;;;;;;5003793;28;20178;-86
2023/09/29 03:54:28;;;;;;;14.43;8.10;;;;;;;;;;5016240;28;20181;-86
2023/09/29 03:57:33;;;;;;;9.73;7.60;;;;;;;;;;5002891;28;20217;-85
2023/09/29 04:00:37;;;;;;;10.13;8.27;;;;;;;;;;5003126;28;20202;-86
2023/09/29 04:03:42;;;;;;;10.70;7.40;;;;;;;;;;5015370;28;20189;-86
2023/09/29 04:06:46;;;;;;;11.27;8.17;;;;;;;;;;5015663;28;20221;-85
2023/09/29 04:09:50;;;;;;;9.53;7.73;;;;;;;;;;5051340;28;20182;-85
2023/09/29 04:12:54;;;;;;;12.27;8.37;;;;;;;;;;5051213;28;20178;-86
2023/09/29 04:16:07;;;;;;;12.27;8.57;;;;;;;;;;5015685;28;20662;-86
2023/09/29 04:19:12;;;;;;;20.57;9.07;;;;;;;;;;5016021;28;20178;-85
2023/09/29 04:22:16;;;;;;;13.57;8.23;;;;;;;;;;5051411;28;20213;-85
2023/09/29 04:25:21;;;;;;;10.90;8.20;;;;;;;;;;5016001;28;20185;-86
2023/09/29 04:28:25;;;;;;;12.07;8.17;;;;;;;;;;5061521;28;20224;-86
2023/09/29 04:31:29;;;;;;;8.87;7.43;;;;;;;;;;5061842;28;20523;-85
2023/09/29 04:34:33;;;;;;;12.13;7.47;;;;;;;;;;5061693;28;20186;-85
2023/09/29 04:37:37;;;;;;;14.30;7.93;;;;;;;;;;5061475;28;20570;-86
2023/09/29 04:40:42;;;;;;;10.17;7.33;;;;;;;;;;5050102;28;20217;-84
2023/09/29 04:43:46;;;;;;;10.00;7.10;;;;;;;;;;5014645;28;20185;-85
2023/09/29 04:46:50;;;;;;;10.80;6.93;;;;;;;;;;5003316;28;20217;-86
2023/09/29 04:49:55;;;;;;;10.87;7.47;;;;;;;;;;5014838;28;20626;-84
2023/09/29 04:52:59;;;;;;;10.43;7.53;;;;;;;;;;5050846;28;20177;-86
2023/09/29 04:56:03;;;;;;;10.10;7.93;;;;;;;;;;5049839;28;20178;-86
2023/09/29 04:59:08;;;;;;;13.83;8.63;;;;;;;;;;5050449;28;20194;-85
2023/09/29 05:02:12;;;;;;;12.60;8.57;;;;;;;;;;4979131;28;20201;-85
2023/09/29 05:05:16;;;;;;;9.77;7.63;;;;;;;;;;5013570;28;20186;-85
2023/09/29 05:08:20;;;;;;;12.30;7.57;;;;;;;;;;5049650;28;20216;-85
2023/09/29 05:11:27;;;;;;;9.17;7.13;;;;;;;;;;5052507;28;20178;-85
2023/09/29 05:14:31;;;;;;;12.13;7.03;;;;;;;;;;4994409;28;20182;-85
2023/09/29 05:17:35;;;;;;;10.27;6.77;;;;;;;;;;5064426;28;20216;-85
2023/09/29 05:20:39;;;;;;;10.33;7.00;;;;;;;;;;5005283;28;20523;-85
2023/09/29 05:23:43;;;;;;;8.90;6.67;;;;;;;;;;5017051;28;20177;-84
2023/09/29 05:26:47;;;;;;;9.73;7.60;;;;;;;;;;5053189;28;20685;-85
2023/09/29 05:29:51;;;;;;;10.67;6.73;;;;;;;;;;5064961;28;20178;-85
2023/09/29 05:32:55;;;;;;;9.43;6.53;;;;;;;;;;5041298;28;20177;-86
2023/09/29 05:36:00;;;;;;;10.67;7.37;;;;;;;;;;5016934;28;20178;-85
2023/09/29 05:39:04;;;;;;;9.90;7.13;;;;;;;;;;5016200;28;20182;-85
2023/09/29 05:42:08;;;;;;;9.70;6.80;;;;;;;;;;5016280;28;20217;-85
2023/09/29 05:45:12;;;;;;;9.87;6.30;;;;;;;;;;5016779;28;20186;-85
2023/09/29 05:48:16;;;;;;;8.90;6.13;;;;;;;;;;5004178;28;20566;-85
2023/09/29 05:51:21;;;;;;;14.47;6.63;;;;;;;;;;5051685;28;20178;-84
2023/09/29 05:54:25;;;;;;;10.67;6.93;;;;;;;;;;5051604;28;20186;-85
2023/09/29 05:57:29;;;;;;;12.80;6.97;;;;;;;;;;5003762;28;20221;-85
2023/09/29 06:00:34;;;;;;;9.77;6.93;;;;;;;;;;5064359;28;20182;-84
2023/09/29 06:03:38;;;;;;;13.40;6.50;;;;;;;;;;5051847;28;20189;-85
2023/09/29 06:06:42;;;;;;;11.00;7.23;;;;;;;;;;5016945;28;20221;-84
2023/09/29 06:09:46;;;;;;;17.47;9.23;;;;;;;;;;5063221;28;20185;-85
2023/09/29 06:12:51;;;;;;;12.60;8.53;;;;;;;;;;5050857;28;20173;-85
2023/09/29 06:15:56;;;;;;;17.70;9.30;;;;;;;;;;5050972;28;20178;-86
2023/09/29 06:19:00;;;;;;;16.03;8.53;;;;;;;;;;5063382;28;20185;-85
2023/09/29 06:22:05;;;;;;;17.10;8.30;;;;;;;;;;4992789;28;20213;-85
2023/09/29 06:25:09;;;;;;;13.47;8.37;;;;;;;;;;5062856;28;20626;-84
2023/09/29 06:28:13;;;;;;;13.83;7.80;;;;;;;;;;5064097;28;20232;-85
2023/09/29 06:31:18;;;;;;;16.63;8.60;;;;;;;;;;5014839;28;20185;-84
2023/09/29 06:34:22;;;;;;;10.77;7.57;;;;;;;;;;5003322;28;20186;-84
2023/09/29 06:37:26;;;;;;;12.87;7.33;;;;;;;;;;5062307;28;20221;-84
2023/09/29 06:40:30;;;;;;;15.13;8.63;;;;;;;;;;5015210;28;20186;-85
2023/09/29 06:43:34;;;;;;;15.67;8.30;;;;;;;;;;5039552;28;20178;-86
2023/09/29 06:46:38;;;;;;;11.27;7.50;;;;;;;;;;5062207;28;20190;-86
2023/09/29 06:49:42;;;;;;;11.27;7.57;;;;;;;;;;5039245;28;20178;-86
2023/09/29 06:52:46;;;;;;;11.37;6.57;;;;;;;;;;5014481;28;20181;-85
2023/09/29 06:55:51;;;;;;;8.83;6.43;;;;;;;;;;5015203;28;20519;-85
2023/09/29 06:58:55;;;;;;;10.60;5.63;;;;;;;;;;5062045;28;20182;-86
2023/09/29 07:01:59;;;;;;;9.43;5.57;;;;;;;;;;5051015;28;20214;-85
2023/09/29 07:05:05;;;;;;;12.17;6.10;;;;;;;;;;5015220;28;20185;-86
2023/09/29 07:08:09;;;;;;;8.33;5.00;;;;;;;;;;5015690;28;20209;-85
2023/09/29 07:11:13;;;;;;;10.47;4.70;;;;;;;;;;4980571;28;20531;-85
2023/09/29 07:14:17;;;;;;;7.13;5.17;;;;;;;;;;5015746;28;20182;-86
2023/09/29 07:17:22;;;;;;;6.70;5.00;;;;;;;;;;5004384;28;20217;-86
2023/09/29 07:20:26;;;;;;;8.33;5.80;;;;;;;;;;4980512;28;20181;-85
2023/09/29 07:23:33;;;;;;;10.23;4.80;;;;;;;;;;5002594;28;20186;-86
2023/09/29 07:26:38;;;;;;;7.67;4.53;;;;;;;;;;5050290;28;20182;-86
2023/09/29 07:29:42;;;;;;;9.23;4.27;;;;;;;;;;5002344;28;20177;-85
2023/09/29 07:32:47;;;;;;;5.80;4.23;;;;;;;;;;5002425;28;20177;-86
2023/09/29 07:35:51;;;;;;;6.47;4.10;;;;;;;;;;5049104;28;20185;-86
2023/09/29 07:38:55;;;;;;;5.30;4.30;;;;;;;;;;5014066;28;20190;-86
2023/09/29 07:41:59;;;;;;;5.67;4.27;;;;;;;;;;5014038;28;20590;-84
2023/09/29 07:45:04;;;;;;;7.70;4.80;;;;;;;;;;5049291;28;20185;-85
2023/09/29 07:48:08;;;;;;;8.20;4.10;;;;;;;;;;5060320;28;20213;-85
2023/09/29 07:51:13;;;;;;;7.43;4.20;;;;;;;;;;5013075;28;20181;-85
2023/09/29 07:54:20;;;;;;;4.73;3.60;;;;;;;;;;5059700;28;20277;-86
2023/09/29 07:57:24;;;;;;;8.03;4.10;;;;;;;;;;5013735;28;20221;-85
2023/09/29 08:00:28;;;;;;;6.40;4.13;;;;;;;;;;5049435;28;20182;-87
2023/09/29 08:03:32;;;;;;;6.40;4.10;;;;;;;;;;5001362;28;20213;-86
2023/09/29 08:06:37;;;;;;;6.77;4.50;;;;;;;;;;5059831;28;20181;-86
2023/09/29 08:09:41;;;;;;;5.03;4.10;;;;;;;;;;4990088;28;20185;-85
2023/09/29 08:12:45;;;;;;;7.77;3.93;;;;;;;;;;5013675;28;20177;-86
2023/09/29 08:15:50;;;;;;;5.57;4.20;;;;;;;;;;5012218;28;20189;-85
2023/09/29 08:18:54;;;;;;;6.10;3.67;;;;;;;;;;5011996;28;20182;-85
2023/09/29 08:21:58;;;;;;;5.13;3.57;;;;;;;;;;5059750;28;20205;-85
2023/09/29 08:25:07;;;;;;;4.87;3.27;;;;;;;;;;5012873;28;20186;-85
2023/09/29 08:28:13;;;;;;;4.83;3.33;;;;;;;;;;5011797;28;20225;-85
2023/09/29 08:31:17;;;;;;;5.40;3.60;;;;;;;;;;5059330;28;20515;-85
2023/09/29 08:34:21;;;;;;;10.60;3.77;;;;;;;;;;5059151;28;20181;-85
2023/09/29 08:37:25;;;;;;;5.23;3.37;;;;;;;;;;5047932;28;20213;-85
2023/09/29 08:40:36;;;;;;;8.77;3.87;;;;;;;;;;5059696;28;20630;-85
2023/09/29 08:43:42;;;;;;;7.77;3.60;;;;;;;;;;5051192;28;20205;-85
2023/09/29 08:46:49;;;;;;;6.30;3.57;;;;;;;;;;5004736;28;20219;-86
2023/09/29 08:49:54;;;;;;;8.97;4.23;;;;;;;;;;5016458;28;20653;-84
2023/09/29 08:53:00;;;;;;;4.83;3.37;;;;;;;;;;5063736;28;20185;-86
2023/09/29 08:56:11;;;;;;;5.30;3.43;;;;;;;;;;5016309;28;20551;-85
2023/09/29 08:59:15;;;;;;;6.13;3.90;;;;;;;;;;5063581;28;20176;-85
2023/09/29 09:02:19;;;;;;;5.18;3.17;;;;;;;;;;5063098;28;20209;-85
2023/09/29 09:05:23;;;;;;;6.70;3.20;;;;;;;;;;5015769;28;20188;-85
2023/09/29 09:08:27;;;;;;;5.75;3.38;;;;;;;;;;5062923;28;20220;-85
2023/09/29 09:11:44;;;;;;;5.65;4.30;;;;;;;;;;5005014;28;20182;-85
2023/09/29 09:14:48;;;;;;;7.55;4.32;;;;;;;;;;5064275;28;20629;-85
2023/09/29 09:17:53;;;;;;;6.63;3.55;;;;;;;;;;5016444;28;20220;-85
2023/09/29 09:20:57;;;;;;;9.57;3.88;;;;;;;;;;5063270;28;20188;-85
2023/09/29 09:24:02;;;;;;;5.75;3.45;;;;;;;;;;5016051;28;20181;-85
2023/09/29 09:27:07;;;;;;;4.38;3.50;;;;;;;;;;5015499;28;20232;-85
2023/09/29 09:30:23;;;;;;;5.47;3.40;;;;;;;;;;5063472;28;20186;-84
2023/09/29 09:33:28;;;;;;;5.03;3.08;;;;;;;;;;5004600;28;20182;-86
2023/09/29 09:36:42;;;;;;;7.10;3.92;;;;;;;;;;5051203;28;20185;-86
2023/09/29 09:39:47;;;;;;;7.43;3.53;;;;;;;;;;5063255;28;20182;-85
2023/09/29 09:42:53;;;;;;;3.47;3.00;;;;;;;;;;5003363;28;20218;-85
2023/09/29 09:46:03;;;;;;;6.78;3.45;;;;;;;;;;5016139;28;20624;-85
2023/09/29 09:49:10;;;;;;;6.40;3.25;;;;;;;;;;5014372;28;20183;-85
2023/09/29 09:52:24;;;;;;;4.00;3.10;;;;;;;;;;5015507;28;20182;-85
2023/09/29 09:55:55;;;;;;;6.18;3.42;;;;;;;;;;5002609;28;20170;-85
2023/09/29 09:59:00;;;;;;;4.57;3.00;;;;;;;;;;5062188;28;20186;-86
2023/09/29 10:02:07;;;;;;;5.00;3.15;;;;;;;;;;5015455;28;20185;-85
2023/09/29 10:05:30;;;;;;;8.25;3.42;;;;;;;;;;5062763;28;20526;-85
2023/09/29 10:08:34;;;;;;;6.85;3.10;;;;;;;;;;5015334;28;20217;-85
2023/09/29 10:11:42;;;;;;;10.65;3.90;;;;;;;;;;5004286;28;20182;-86
2023/09/29 10:14:46;;;;;;;9.60;3.75;;;;;;;;;;5062731;28;20174;-85
2023/09/29 10:17:51;;;;;;;6.65;3.30;;;;;;;;;;5015387;28;20221;-85
2023/09/29 10:21:06;;;;;;;5.95;3.53;;;;;;;;;;5038629;28;20182;-85
2023/09/29 10:24:13;;;;;;;4.57;3.45;;;;;;;;;;5015191;28;20206;-85
2023/09/29 10:27:30;;;;;;;4.03;3.20;;;;;;;;;;5061292;28;20705;-85
2023/09/29 10:30:38;;;;;;;4.50;3.20;;;;;;;;;;5061954;28;20523;-85
2023/09/29 10:33:53;;;;;;;6.70;3.13;;;;;;;;;;5049722;28;20182;-85
2023/09/29 10:36:57;;;;;;;5.53;2.90;;;;;;;;;;5062147;28;20214;-85
2023/09/29 10:40:07;;;;;;;7.70;3.67;;;;;;;;;;5061916;28;20178;-85
2023/09/29 10:43:17;;;;;;;6.40;3.60;;;;;;;;;;5014335;28;20206;-85
2023/09/29 10:46:22;;;;;;;4.93;3.33;;;;;;;;;;5061552;28;20177;-85
2023/09/29 10:49:32;;;;;;;6.68;3.67;;;;;;;;;;5002434;28;20182;-86
2023/09/29 10:52:36;;;;;;;5.30;3.28;;;;;;;;;;5014593;28;20174;-86
2023/09/29 10:55:52;;;;;;;7.82;3.20;;;;;;;;;;5014266;28;20190;-85
2023/09/29 10:58:55;;;;;;;7.57;2.95;;;;;;;;;;5062009;28;20182;-85
2023/09/29 11:02:00;;;;;;;4.55;2.97;;;;;;;;;;4991290;28;20190;-85
2023/09/29 11:05:07;;;;;;;5.15;3.33;;;;;;;;;;5014044;28;20174;-85
2023/09/29 11:08:11;;;;;;;7.07;3.35;;;;;;;;;;5002477;28;20225;-86
2023/09/29 11:11:15;;;;;;;6.30;3.10;;;;;;;;;;5002061;28;20182;-85
2023/09/29 11:14:19;;;;;;;4.25;2.95;;;;;;;;;;5014735;28;20182;-85
2023/09/29 11:17:23;;;;;;;4.18;3.08;;;;;;;;;;5001821;28;20216;-86
2023/09/29 11:20:29;;;;;;;3.90;3.00;;;;;;;;;;5060555;28;20184;-85
2023/09/29 11:24:03;;;;;;;6.03;3.58;;;;;;;;;;5013010;28;20213;-86
2023/09/29 11:27:07;;;;;;;5.18;3.17;;;;;;;;;;5013558;28;20228;-85
2023/09/29 11:30:11;;;;;;;6.63;3.20;;;;;;;;;;5049915;28;20187;-85
2023/09/29 11:33:17;;;;;;;4.13;2.90;;;;;;;;;;5014066;28;20180;-85
2023/09/29 11:36:23;;;;;;;5.57;3.20;;;;;;;;;;5062032;28;20188;-85
2023/09/29 11:39:27;;;;;;;5.10;3.28;;;;;;;;;;5014721;28;20188;-85
2023/09/29 11:42:34;;;;;;;4.60;3.42;;;;;;;;;;5013590;28;20224;-86
2023/09/29 11:45:39;;;;;;;7.78;3.28;;;;;;;;;;5012862;28;20183;-86
2023/09/29 11:48:44;;;;;;;6.43;3.63;;;;;;;;;;5002011;28;20563;-85
2023/09/29 11:51:52;;;;;;;5.57;3.80;;;;;;;;;;5014812;28;20180;-85
2023/09/29 11:54:56;;;;;;;5.82;3.55;;;;;;;;;;5001749;28;20174;-85
2023/09/29 11:58:01;;;;;;;5.28;2.88;;;;;;;;;;5001539;28;20216;-85
2023/09/29 12:01:06;;;;;;;4.25;2.97;;;;;;;;;;5061149;28;20183;-85
2023/09/29 12:04:10;;;;;;;4.30;2.88;;;;;;;;;;5015196;28;20681;-86
2023/09/29 12:07:18;;;;;;;5.72;2.75;;;;;;;;;;5016123;28;20215;-85
2023/09/29 12:10:24;;;;;;;5.75;2.85;;;;;;;;;;5040416;28;20189;-86
2023/09/29 12:13:29;;;;;;;4.68;2.70;;;;;;;;;;5003374;28;20173;-85
2023/09/29 12:16:33;;;;;;;4.93;3.40;;;;;;;;;;5049994;28;20630;-86
2023/09/29 12:19:37;;;;;;;5.45;3.00;;;;;;;;;;5053747;28;20185;-86
2023/09/29 12:22:46;;;;;;;6.38;3.45;;;;;;;;;;4994507;28;20181;-86
2023/09/29 12:25:50;;;;;;;4.47;2.83;;;;;;;;;;5017207;28;20177;-85
2023/09/29 12:28:54;;;;;;;4.53;2.90;;;;;;;;;;5064627;28;20205;-85
2023/09/29 12:31:58;;;;;;;5.10;2.80;;;;;;;;;;5063945;28;20186;-85
2023/09/29 12:35:03;;;;;;;3.88;2.67;;;;;;;;;;5064465;28;20174;-86
2023/09/29 12:38:08;;;;;;;5.45;2.78;;;;;;;;;;5018348;28;20697;-86
2023/09/29 12:41:13;;;;;;;3.70;2.60;;;;;;;;;;4997975;28;20174;-86
2023/09/29 12:44:46;;;;;;;5.35;2.72;;;;;;;;;;5041820;28;20683;-90
2023/09/29 12:57:48;;;;;;;5.00;2.97;;;;;;;;;;4994285;28;20210;-85
2023/09/29 13:00:54;;;;;;;5.28;2.35;;;;;;;;;;4982929;28;20175;-86
2023/09/29 13:03:58;;;;;;;4.85;2.50;;;;;;;;;;4994787;28;20183;-86
2023/09/29 13:07:05;;;;;;;2.72;2.10;;;;;;;;;;5029843;28;20218;-85
2023/09/29 13:10:10;;;;;;;2.63;2.22;;;;;;;;;;4994290;28;20175;-86
2023/09/29 13:13:14;;;;;;;4.35;2.40;;;;;;;;;;4994273;28;20706;-86
2023/09/29 13:16:18;;;;;;;8.48;2.53;;;;;;;;;;5041269;28;20187;-85
2023/09/29 13:19:23;;;;;;;3.35;2.08;;;;;;;;;;5043749;28;20179;-87
2023/09/29 13:22:31;;;;;;;4.07;2.17;;;;;;;;;;5011025;28;20186;-87
2023/09/29 13:25:36;;;;;;;5.07;2.50;;;;;;;;;;5033743;28;20170;-88
2023/09/29 13:29:17;;;;;;;3.15;2.08;;;;;;;;;;5039150;28;20182;-87
2023/09/29 13:32:26;;;;;;;6.88;2.63;;;;;;;;;;5044470;28;20659;-87
2023/09/29 13:35:30;;;;;;;4.82;2.47;;;;;;;;;;5033140;28;20179;-87
2023/09/29 13:38:34;;;;;;;5.78;2.35;;;;;;;;;;5041555;28;20210;-88
2023/09/29 13:41:39;;;;;;;4.45;2.10;;;;;;;;;;5030083;28;20182;-87
2023/09/29 13:44:44;;;;;;;9.20;5.50;;;;;;;;;;4984360;28;20179;-88
2023/09/29 13:47:48;;;;;;;9.45;4.53;;;;;;;;;;4983344;28;20218;-88
2023/09/29 13:50:53;;;;;;;7.00;3.13;;;;;;;;;;4962036;28;20182;-88
2023/09/29 13:53:57;;;;;;;4.50;2.92;;;;;;;;;;4973193;28;20202;-89
2023/09/29 13:57:03;;;;;;;4.78;2.80;;;;;;;;;;5043060;28;20213;-86
2023/09/29 14:00:08;;;;;;;4.50;3.30;;;;;;;;;;4995476;28;20187;-86
2023/09/29 14:03:13;;;;;;;6.32;3.05;;;;;;;;;;5030424;28;20183;-88
2023/09/29 14:06:18;;;;;;;6.13;2.80;;;;;;;;;;5031419;28;20642;-90
2023/09/29 14:09:22;;;;;;;6.35;3.80;;;;;;;;;;5019792;28;20536;-90
2023/09/29 14:12:27;;;;;;;7.05;2.83;;;;;;;;;;5030965;28;20185;-89
2023/09/29 14:15:32;;;;;;;5.97;2.60;;;;;;;;;;5031405;28;20182;-89
2023/09/29 14:18:36;;;;;;;4.38;3.10;;;;;;;;;;5029567;28;20567;-88
2023/09/29 14:21:41;;;;;;;8.77;2.63;;;;;;;;;;5029255;28;20180;-88
2023/09/29 14:24:45;;;;;;;4.35;2.20;;;;;;;;;;5028917;28;20184;-88
2023/09/29 14:27:49;;;;;;;8.80;2.92;;;;;;;;;;5029854;28;20222;-88
2023/09/29 14:30:53;;;;;;;3.58;2.33;;;;;;;;;;5028616;28;20181;-88
2023/09/29 14:33:57;;;;;;;3.05;2.30;;;;;;;;;;5028700;28;20208;-89
2023/09/29 14:37:02;;;;;;;7.53;2.10;;;;;;;;;;5052957;28;20572;-89
2023/09/29 14:40:08;;;;;;;2.85;2.08;;;;;;;;;;5035645;28;20657;-88
2023/09/29 14:43:12;;;;;;;4.07;2.38;;;;;;;;;;5036188;28;20185;-88
2023/09/29 14:46:16;;;;;;;6.38;2.45;;;;;;;;;;5039410;28;20185;-89
2023/09/29 14:49:20;;;;;;;4.18;2.40;;;;;;;;;;5023348;28;20204;-89
2023/09/29 14:52:25;;;;;;;6.28;2.63;;;;;;;;;;5036733;28;20185;-88
2023/09/29 14:55:34;;;;;;;4.40;2.58;;;;;;;;;;5035732;28;20557;-88
2023/09/29 14:58:38;;;;;;;3.40;2.40;;;;;;;;;;5034702;28;20218;-88
2023/09/29 15:01:44;;;;;;;3.08;2.20;;;;;;;;;;5026295;28;20188;-88
2023/09/29 15:04:50;;;;;;;6.07;2.50;;;;;;;;;;5001176;28;20185;-88
2023/09/29 15:07:55;;;;;;;3.53;2.15;;;;;;;;;;4981160;28;20218;-88
2023/09/29 15:10:59;;;;;;;3.95;2.45;;;;;;;;;;5041303;28;20650;-88
2023/09/29 15:14:03;;;;;;;4.78;2.25;;;;;;;;;;5039573;28;20211;-88
2023/09/29 15:17:07;;;;;;;3.00;2.03;;;;;;;;;;5026323;28;20221;-88
2023/09/29 15:20:15;;;;;;;6.25;2.72;;;;;;;;;;4974483;28;20188;-88
2023/09/29 15:23:19;;;;;;;5.03;2.70;;;;;;;;;;5035254;28;20177;-88
2023/09/29 15:26:27;;;;;;;3.03;2.20;;;;;;;;;;5021002;28;20197;-88
2023/09/29 15:29:32;;;;;;;4.78;2.42;;;;;;;;;;5047174;28;20190;-89
2023/09/29 15:32:36;;;;;;;4.03;2.63;;;;;;;;;;5041537;28;20192;-89
2023/09/29 15:35:57;;;;;;;4.25;3.00;;;;;;;;;;5030983;28;20567;-88
2023/09/29 15:39:03;;;;;;;3.00;2.30;;;;;;;;;;5034999;28;20189;-88
2023/09/29 15:42:09;;;;;;;3.60;2.67;;;;;;;;;;5035196;28;20643;-89
2023/09/29 15:45:14;;;;;;;12.48;4.53;;;;;;;;;;5046859;28;20185;-89
2023/09/29 15:48:18;;;;;;;6.95;3.40;;;;;;;;;;5058560;28;20691;-88
2023/09/29 15:51:21;;;;;;;3.42;2.38;;;;;;;;;;4976844;28;20636;-89
2023/09/29 15:54:26;;;;;;;8.23;2.92;;;;;;;;;;5058182;28;20675;-90
2023/09/29 15:57:30;;;;;;;5.78;2.80;;;;;;;;;;4999119;28;20215;-90
2023/09/29 16:00:34;;;;;;;7.30;2.67;;;;;;;;;;5035001;28;20636;-89
2023/09/29 16:03:38;;;;;;;8.23;2.55;;;;;;;;;;5046788;28;20640;-89
2023/09/29 16:06:43;;;;;;;3.60;2.60;;;;;;;;;;5034475;28;20225;-89
2023/09/29 16:09:47;;;;;;;4.65;2.60;;;;;;;;;;5035142;28;20178;-89
2023/09/29 16:12:51;;;;;;;4.53;2.65;;;;;;;;;;5035125;28;20182;-88
2023/09/29 16:15:55;;;;;;;20.15;12.50;;;;;;;;;;5034639;28;20206;-89
2023/09/29 16:19:00;;;;;;;15.13;7.35;;;;;;;;;;5003666;28;20192;-84
2023/09/29 16:22:05;;;;;;;5.68;2.80;;;;;;;;;;5020817;28;20184;-84
2023/09/29 16:25:11;;;;;;;10.85;3.00;;;;;;;;;;4997218;28;20176;-83
2023/09/29 16:28:15;;;;;;;3.67;2.67;;;;;;;;;;5066494;28;20220;-83
2023/09/29 16:31:19;;;;;;;5.50;2.90;;;;;;;;;;5065921;28;20178;-83
2023/09/29 16:34:23;;;;;;;5.97;2.60;;;;;;;;;;5045683;28;20213;-84
2023/09/29 16:37:28;;;;;;;6.63;2.47;;;;;;;;;;5043270;28;20215;-84
2023/09/29 16:40:32;;;;;;;7.20;2.40;;;;;;;;;;5019033;28;20187;-84
2023/09/29 16:43:37;;;;;;;3.80;2.43;;;;;;;;;;4984420;28;20184;-85
2023/09/29 16:46:41;;;;;;;4.97;2.50;;;;;;;;;;5067541;28;20184;-84
2023/09/29 16:49:47;;;;;;;5.30;2.70;;;;;;;;;;4984636;28;20187;-84
2023/09/29 16:52:51;;;;;;;3.87;2.30;;;;;;;;;;5052976;28;20182;-85
2023/09/29 16:56:00;;;;;;;3.97;2.53;;;;;;;;;;5061678;28;20205;-85
2023/09/29 16:59:04;;;;;;;2.97;2.00;;;;;;;;;;5030999;28;20541;-84
2023/09/29 17:02:08;;;;;;;6.63;2.60;;;;;;;;;;5049862;28;20192;-84
2023/09/29 17:05:14;;;;;;;5.70;2.47;;;;;;;;;;5047245;28;20183;-84
2023/09/29 17:08:18;;;;;;;10.43;2.93;;;;;;;;;;4986067;28;20222;-85
2023/09/29 17:11:22;;;;;;;20.07;3.53;;;;;;;;;;5034913;28;20523;-84
2023/09/29 17:14:27;;;;;;;16.63;3.27;;;;;;;;;;5035221;28;20547;-85
2023/09/29 17:17:31;;;;;;;4.13;2.77;;;;;;;;;;5046636;28;20214;-84
2023/09/29 17:20:38;;;;;;;7.00;2.67;;;;;;;;;;4987450;28;20174;-84
2023/09/29 17:23:46;;;;;;;8.23;2.70;;;;;;;;;;5058809;28;20179;-85
2023/09/29 17:26:51;;;;;;;6.30;2.60;;;;;;;;;;4987465;28;20230;-84
2023/09/29 17:29:55;;;;;;;7.77;2.60;;;;;;;;;;5045502;28;20182;-84
2023/09/29 17:32:59;;;;;;;6.20;2.43;;;;;;;;;;4976064;28;20527;-84
2023/09/29 17:36:05;;;;;;;7.07;2.70;;;;;;;;;;5034982;28;20214;-85
2023/09/29 17:39:09;;;;;;;3.47;2.70;;;;;;;;;;4987210;28;20179;-85
2023/09/29 17:42:13;;;;;;;4.37;2.93;;;;;;;;;;5044584;28;20527;-84
2023/09/29 17:45:18;;;;;;;5.60;3.00;;;;;;;;;;5034624;28;20638;-83
2023/09/29 17:48:22;;;;;;;4.13;2.67;;;;;;;;;;5044413;28;20217;-85
2023/09/29 17:51:26;;;;;;;3.60;2.57;;;;;;;;;;5046099;28;20187;-84
2023/09/29 17:54:30;;;;;;;6.00;2.70;;;;;;;;;;4999190;28;20205;-84
2023/09/29 17:57:34;;;;;;;9.40;3.03;;;;;;;;;;4999803;28;20218;-84
2023/09/29 18:00:39;;;;;;;3.70;2.37;;;;;;;;;;5035131;28;20182;-86
2023/09/29 18:03:45;;;;;;;6.03;3.03;;;;;;;;;;5024949;28;20182;-86
2023/09/29 18:06:49;;;;;;;7.77;2.97;;;;;;;;;;5047307;28;20218;-86
2023/09/29 18:09:53;;;;;;;4.90;2.57;;;;;;;;;;4989019;28;20178;-85
2023/09/29 18:12:57;;;;;;;6.23;3.10;;;;;;;;;;4989295;28;20178;-85
2023/09/29 18:16:05;;;;;;;4.77;2.80;;;;;;;;;;5034779;28;20210;-85
2023/09/29 18:19:09;;;;;;;9.17;3.00;;;;;;;;;;4977826;28;20635;-85
2023/09/29 18:22:13;;;;;;;5.87;2.63;;;;;;;;;;4977607;28;20183;-85
2023/09/29 18:25:18;;;;;;;5.73;2.97;;;;;;;;;;5001564;28;20174;-85
2023/09/29 18:28:22;;;;;;;8.70;2.80;;;;;;;;;;5038465;28;20230;-86
2023/09/29 18:31:27;;;;;;;8.80;2.93;;;;;;;;;;5047878;28;20175;-84
2023/09/29 18:34:31;;;;;;;3.83;2.80;;;;;;;;;;5000537;28;20183;-85
2023/09/29 18:37:35;;;;;;;4.47;3.00;;;;;;;;;;5035318;28;20221;-85
2023/09/29 18:40:40;;;;;;;6.37;3.37;;;;;;;;;;5048061;28;20183;-85